createdAt,value
2023-04-27T00:00:11.875Z,34.86
2023-04-27T00:01:11.681Z,34.86
2023-04-27T00:02:11.772Z,34.89
2023-04-27T00:03:11.891Z,34.96
2023-04-27T00:04:11.895Z,34.88
2023-04-27T00:05:12.003Z,34.87
2023-04-27T00:06:11.912Z,34.84
2023-04-27T00:07:11.895Z,34.94
2023-04-27T00:08:11.930Z,34.86
2023-04-27T00:09:12.236Z,34.91
2023-04-27T00:10:11.979Z,34.91
2023-04-27T00:11:12.006Z,34.86
2023-04-27T00:12:12.048Z,34.85
2023-04-27T00:13:12.109Z,34.96
2023-04-27T00:14:12.118Z,35.00
2023-04-27T00:15:12.152Z,34.85
2023-04-27T00:16:12.186Z,34.89
2023-04-27T00:17:12.212Z,34.84
2023-04-27T00:18:12.238Z,34.91
2023-04-27T00:19:12.485Z,34.85
2023-04-27T00:20:12.346Z,34.89
2023-04-27T00:21:12.338Z,34.81
2023-04-27T00:22:12.370Z,34.84
2023-04-27T00:23:12.414Z,34.91
2023-04-27T00:24:12.432Z,34.83
2023-04-27T00:25:12.613Z,34.90
2023-04-27T00:26:12.502Z,34.81
2023-04-27T00:27:12.551Z,34.75
2023-04-27T00:28:12.620Z,34.87
2023-04-27T00:29:12.824Z,34.88
2023-04-27T00:30:12.637Z,34.91
2023-04-27T00:31:12.663Z,34.90
2023-04-27T00:32:12.720Z,34.86
2023-04-27T00:33:12.749Z,34.90
2023-04-27T00:34:12.764Z,34.95
2023-04-27T00:35:12.813Z,34.85
2023-04-27T00:36:12.846Z,34.89
2023-04-27T00:37:12.862Z,34.83
2023-04-27T00:38:12.925Z,34.93
2023-04-27T00:39:13.155Z,35.02
2023-04-27T00:40:12.982Z,34.87
2023-04-27T00:41:13.018Z,34.90
2023-04-27T00:42:13.056Z,34.82
2023-04-27T00:43:13.076Z,34.80
2023-04-27T00:44:13.107Z,34.83
2023-04-27T00:45:13.183Z,34.83
2023-04-27T00:46:13.282Z,34.88
2023-04-27T00:47:13.236Z,34.83
2023-04-27T00:48:13.274Z,34.93
2023-04-27T00:49:13.480Z,34.95
2023-04-27T00:50:13.334Z,35.01
2023-04-27T00:51:13.417Z,34.97
2023-04-27T00:52:13.411Z,34.95
2023-04-27T00:53:13.425Z,34.88
2023-04-27T00:54:13.447Z,34.93
2023-04-27T00:55:13.476Z,34.96
2023-04-27T00:56:13.562Z,34.97
2023-04-27T00:57:13.556Z,34.92
2023-04-27T00:58:13.623Z,34.91
2023-04-27T00:59:13.842Z,34.86
2023-04-27T01:00:13.763Z,34.83
2023-04-27T01:01:13.770Z,34.97
2023-04-27T01:02:13.936Z,34.89
2023-04-27T01:03:14.005Z,35.01
2023-04-27T01:04:13.966Z,34.93
2023-04-27T01:05:13.855Z,34.87
2023-04-27T01:06:13.874Z,34.85
2023-04-27T01:07:13.913Z,34.93
2023-04-27T01:08:13.945Z,34.96
2023-04-27T01:09:14.321Z,35.04
2023-04-27T01:10:14.029Z,34.90
2023-04-27T01:11:14.048Z,34.90
2023-04-27T01:12:14.080Z,34.91
2023-04-27T01:13:14.132Z,34.86
2023-04-27T01:14:14.155Z,34.87
2023-04-27T01:15:14.230Z,34.83
2023-04-27T01:16:14.275Z,34.86
2023-04-27T01:17:14.369Z,34.97
2023-04-27T01:18:14.357Z,34.90
2023-04-27T01:19:14.706Z,34.87
2023-04-27T01:20:14.401Z,34.83
2023-04-27T01:21:14.460Z,34.86
2023-04-27T01:22:14.544Z,34.96
2023-04-27T01:23:16.773Z,34.98
2023-04-27T01:24:14.514Z,34.87
2023-04-27T01:25:14.576Z,34.92
2023-04-27T01:26:14.584Z,34.90
2023-04-27T01:27:14.482Z,34.94
2023-04-27T01:28:14.489Z,35.01
2023-04-27T01:29:14.761Z,34.93
2023-04-27T01:30:14.486Z,34.93
2023-04-27T01:31:14.546Z,34.85
2023-04-27T01:32:14.478Z,34.90
2023-04-27T01:33:14.486Z,34.89
2023-04-27T01:34:14.454Z,34.96
2023-04-27T01:35:14.489Z,34.95
2023-04-27T01:36:14.421Z,34.95
2023-04-27T01:37:14.463Z,34.90
2023-04-27T01:38:14.460Z,34.89
2023-04-27T01:39:14.699Z,35.05
2023-04-27T01:40:14.420Z,35.03
2023-04-27T01:41:14.408Z,35.00
2023-04-27T01:42:14.400Z,35.09
2023-04-27T01:43:14.386Z,34.97
2023-04-27T01:44:14.395Z,34.95
2023-04-27T01:45:14.417Z,35.05
2023-04-27T01:46:14.420Z,35.05
2023-04-27T01:47:14.381Z,34.96
2023-04-27T01:48:14.380Z,35.06
2023-04-27T01:49:14.552Z,34.97
2023-04-27T01:50:14.375Z,34.87
2023-04-27T01:51:14.389Z,35.03
2023-04-27T01:52:14.352Z,35.02
2023-04-27T01:53:14.350Z,34.96
2023-04-27T01:54:14.320Z,35.04
2023-04-27T01:55:14.352Z,35.00
2023-04-27T01:56:14.318Z,35.04
2023-04-27T01:57:14.335Z,35.08
2023-04-27T01:58:14.305Z,35.02
2023-04-27T01:59:14.525Z,35.02
2023-04-27T02:00:14.268Z,34.94
2023-04-27T02:01:14.317Z,35.02
2023-04-27T02:02:14.287Z,34.97
2023-04-27T02:03:14.369Z,35.07
2023-04-27T02:04:14.472Z,35.06
2023-04-27T02:05:14.254Z,35.09
2023-04-27T02:06:14.252Z,35.03
2023-04-27T02:07:14.233Z,34.99
2023-04-27T02:08:14.235Z,35.02
2023-04-27T02:09:14.424Z,35.08
2023-04-27T02:10:14.241Z,35.05
2023-04-27T02:11:14.221Z,35.04
2023-04-27T02:12:14.299Z,35.05
2023-04-27T02:13:14.321Z,35.08
2023-04-27T02:14:14.389Z,34.99
2023-04-27T02:15:14.417Z,35.08
2023-04-27T02:16:14.480Z,34.97
2023-04-27T02:17:14.490Z,35.05
2023-04-27T02:18:14.505Z,35.07
2023-04-27T02:19:14.718Z,35.01
2023-04-27T02:20:14.619Z,35.07
2023-04-27T02:21:14.642Z,35.04
2023-04-27T02:22:14.670Z,35.10
2023-04-27T02:23:14.716Z,35.09
2023-04-27T02:24:14.760Z,35.05
2023-04-27T02:25:14.851Z,35.01
2023-04-27T02:26:14.842Z,34.98
2023-04-27T02:27:14.879Z,35.03
2023-04-27T02:28:14.895Z,35.10
2023-04-27T02:29:15.882Z,35.08
2023-04-27T02:30:15.022Z,35.04
2023-04-27T02:31:15.087Z,35.00
2023-04-27T02:32:15.078Z,35.06
2023-04-27T02:33:15.145Z,35.06
2023-04-27T02:34:15.156Z,35.05
2023-04-27T02:35:15.201Z,35.00
2023-04-27T02:36:15.283Z,35.13
2023-04-27T02:37:15.319Z,35.05
2023-04-27T02:38:15.317Z,35.02
2023-04-27T02:39:15.615Z,35.11
2023-04-27T02:40:15.475Z,35.09
2023-04-27T02:41:15.457Z,35.08
2023-04-27T02:42:15.507Z,35.07
2023-04-27T02:43:15.550Z,35.01
2023-04-27T02:44:15.592Z,35.03
2023-04-27T02:45:15.657Z,35.02
2023-04-27T02:46:15.710Z,35.04
2023-04-27T02:47:15.765Z,34.98
2023-04-27T02:48:15.771Z,34.97
2023-04-27T02:49:16.131Z,35.04
2023-04-27T02:50:15.862Z,35.13
2023-04-27T02:51:15.917Z,35.00
2023-04-27T02:52:15.950Z,35.09
2023-04-27T02:53:15.984Z,35.05
2023-04-27T02:54:16.035Z,35.08
2023-04-27T02:55:23.146Z,35.01
2023-04-27T02:56:16.051Z,35.07
2023-04-27T02:57:16.051Z,35.03
2023-04-27T02:58:16.064Z,35.09
2023-04-27T02:59:16.281Z,35.09
2023-04-27T03:00:16.036Z,34.95
2023-04-27T03:01:16.060Z,35.09
2023-04-27T03:02:16.022Z,35.06
2023-04-27T03:03:16.142Z,35.06
2023-04-27T03:04:16.254Z,35.16
2023-04-27T03:05:16.019Z,35.06
2023-04-27T03:06:15.976Z,35.08
2023-04-27T03:07:15.979Z,35.08
2023-04-27T03:08:15.993Z,35.03
2023-04-27T03:09:16.451Z,35.10
2023-04-27T03:10:15.960Z,35.06
2023-04-27T03:11:15.968Z,35.03
2023-04-27T03:12:15.967Z,35.05
2023-04-27T03:13:15.958Z,35.13
2023-04-27T03:14:15.977Z,35.20
2023-04-27T03:15:15.945Z,35.08
2023-04-27T03:16:16.663Z,35.12
2023-04-27T03:17:15.909Z,35.01
2023-04-27T03:18:15.918Z,35.03
2023-04-27T03:19:16.089Z,35.07
2023-04-27T03:20:15.912Z,35.07
2023-04-27T03:21:15.890Z,35.11
2023-04-27T03:22:15.951Z,35.15
2023-04-27T03:23:15.930Z,35.18
2023-04-27T03:24:15.998Z,35.06
2023-04-27T03:25:16.048Z,35.08
2023-04-27T03:26:16.124Z,35.11
2023-04-27T03:27:16.145Z,35.14
2023-04-27T03:28:16.177Z,35.10
2023-04-27T03:29:16.278Z,35.13
2023-04-27T03:30:16.290Z,35.16
2023-04-27T03:31:16.375Z,35.14
2023-04-27T03:32:16.380Z,35.07
2023-04-27T03:33:16.555Z,35.11
2023-04-27T03:34:16.457Z,35.18
2023-04-27T03:35:16.498Z,35.11
2023-04-27T03:36:16.585Z,35.11
2023-04-27T03:37:16.589Z,35.06
2023-04-27T03:38:16.645Z,35.14
2023-04-27T03:39:16.736Z,35.17
2023-04-27T03:40:16.768Z,35.14
2023-04-27T03:41:16.770Z,35.10
2023-04-27T03:42:16.816Z,35.23
2023-04-27T03:43:16.861Z,35.17
2023-04-27T03:44:16.884Z,35.12
2023-04-27T03:45:16.951Z,35.17
2023-04-27T03:46:17.012Z,35.17
2023-04-27T03:47:17.041Z,35.19
2023-04-27T03:48:17.094Z,35.23
2023-04-27T03:49:17.126Z,35.21
2023-04-27T03:50:17.165Z,35.12
2023-04-27T03:51:17.200Z,35.14
2023-04-27T03:52:17.267Z,35.15
2023-04-27T03:53:17.301Z,35.19
2023-04-27T03:54:17.338Z,35.14
2023-04-27T03:55:17.408Z,35.09
2023-04-27T03:56:17.454Z,35.27
2023-04-27T03:57:17.483Z,35.17
2023-04-27T03:58:17.550Z,35.23
2023-04-27T03:59:17.586Z,35.13
2023-04-27T04:00:17.677Z,35.07
2023-04-27T04:01:17.658Z,35.08
2023-04-27T04:02:17.794Z,35.25
2023-04-27T04:03:18.050Z,35.17
2023-04-27T04:04:17.918Z,35.24
2023-04-27T04:05:17.988Z,35.15
2023-04-27T04:06:17.911Z,35.16
2023-04-27T04:07:17.959Z,35.09
2023-04-27T04:08:18.008Z,35.16
2023-04-27T04:09:18.050Z,35.16
2023-04-27T04:10:18.105Z,35.25
2023-04-27T04:11:18.157Z,35.12
2023-04-27T04:12:18.194Z,35.23
2023-04-27T04:13:18.279Z,35.30
2023-04-27T04:14:18.294Z,35.12
2023-04-27T04:15:18.331Z,35.21
2023-04-27T04:16:18.460Z,35.21
2023-04-27T04:17:18.497Z,35.29
2023-04-27T04:18:18.495Z,35.28
2023-04-27T04:19:19.586Z,35.22
2023-04-27T04:20:18.586Z,35.16
2023-04-27T04:21:18.509Z,35.22
2023-04-27T04:22:18.512Z,35.16
2023-04-27T04:23:18.505Z,35.18
2023-04-27T04:24:18.505Z,35.20
2023-04-27T04:25:18.538Z,35.18
2023-04-27T04:26:18.485Z,35.22
2023-04-27T04:27:18.510Z,35.21
2023-04-27T04:28:18.502Z,35.23
2023-04-27T04:29:18.462Z,35.30
2023-04-27T04:30:18.483Z,35.23
2023-04-27T04:31:18.542Z,35.30
2023-04-27T04:32:18.454Z,35.36
2023-04-27T04:33:18.455Z,35.20
2023-04-27T04:34:18.459Z,35.24
2023-04-27T04:35:18.417Z,35.18
2023-04-27T04:36:18.420Z,35.24
2023-04-27T04:37:18.438Z,35.20
2023-04-27T04:38:18.405Z,35.23
2023-04-27T04:39:18.394Z,35.27
2023-04-27T04:40:18.418Z,35.14
2023-04-27T04:41:18.389Z,35.24
2023-04-27T04:42:18.382Z,35.22
2023-04-27T04:43:18.442Z,35.24
2023-04-27T04:44:18.344Z,35.27
2023-04-27T04:45:18.348Z,35.24
2023-04-27T04:46:18.374Z,35.25
2023-04-27T04:47:18.333Z,35.28
2023-04-27T04:48:18.334Z,35.32
2023-04-27T04:49:18.353Z,35.35
2023-04-27T04:50:18.348Z,35.30
2023-04-27T04:51:18.357Z,35.29
2023-04-27T04:52:18.300Z,35.25
2023-04-27T04:53:18.302Z,35.24
2023-04-27T04:54:18.303Z,35.31
2023-04-27T04:55:18.283Z,35.24
2023-04-27T04:56:18.306Z,35.21
2023-04-27T04:57:18.265Z,35.30
2023-04-27T04:58:18.280Z,35.24
2023-04-27T04:59:18.252Z,35.28
2023-04-27T05:00:18.257Z,35.32
2023-04-27T05:01:18.301Z,35.26
2023-04-27T05:02:18.476Z,35.29
2023-04-27T05:03:18.428Z,35.38
2023-04-27T05:04:18.471Z,35.33
2023-04-27T05:05:18.393Z,35.27
2023-04-27T05:06:18.427Z,35.24
2023-04-27T05:07:22.112Z,35.28
2023-04-27T05:08:19.480Z,35.36
2023-04-27T05:09:18.438Z,35.36
2023-04-27T05:10:18.454Z,35.36
2023-04-27T05:11:18.431Z,35.33
2023-04-27T05:12:18.417Z,35.31
2023-04-27T05:13:18.438Z,35.38
2023-04-27T05:14:18.418Z,35.35
2023-04-27T05:15:18.417Z,35.34
2023-04-27T05:16:18.566Z,35.37
2023-04-27T05:17:18.412Z,35.37
2023-04-27T05:18:18.417Z,35.39
2023-04-27T05:19:18.450Z,35.39
2023-04-27T05:20:18.517Z,35.51
2023-04-27T05:21:18.551Z,35.54
2023-04-27T05:22:18.618Z,35.43
2023-04-27T05:23:18.624Z,35.50
2023-04-27T05:24:18.743Z,35.43
2023-04-27T05:25:18.842Z,35.45
2023-04-27T05:26:18.850Z,35.48
2023-04-27T05:27:18.847Z,35.40
2023-04-27T05:28:18.914Z,35.41
2023-04-27T05:29:18.941Z,35.42
2023-04-27T05:30:19.048Z,35.43
2023-04-27T05:31:19.104Z,35.47
2023-04-27T05:32:19.121Z,35.52
2023-04-27T05:33:19.134Z,35.51
2023-04-27T05:34:19.203Z,35.66
2023-04-27T05:35:19.268Z,35.72
2023-04-27T05:36:19.270Z,35.84
2023-04-27T05:37:19.321Z,36.13
2023-04-27T05:38:19.381Z,36.68
2023-04-27T05:39:19.411Z,36.71
2023-04-27T05:40:19.464Z,36.94
2023-04-27T05:41:19.493Z,37.35
2023-04-27T05:42:20.221Z,37.66
2023-04-27T05:43:19.738Z,37.88
2023-04-27T05:44:19.630Z,37.87
2023-04-27T05:45:19.643Z,37.88
2023-04-27T05:46:19.873Z,38.10
2023-04-27T05:47:19.686Z,38.16
2023-04-27T05:48:19.698Z,38.51
2023-04-27T05:49:19.769Z,38.62
2023-04-27T05:50:19.765Z,38.86
2023-04-27T05:51:19.771Z,39.16
2023-04-27T05:52:19.794Z,39.39
2023-04-27T05:53:20.231Z,39.77
2023-04-27T05:54:19.831Z,39.93
2023-04-27T05:55:19.848Z,40.15
2023-04-27T05:56:19.931Z,40.30
2023-04-27T05:57:19.858Z,40.46
2023-04-27T05:58:19.890Z,40.44
2023-04-27T05:59:19.882Z,40.69
2023-04-27T06:00:20.296Z,40.78
2023-04-27T06:01:19.905Z,40.92
2023-04-27T06:02:20.048Z,41.09
2023-04-27T06:03:19.977Z,41.17
2023-04-27T06:04:20.047Z,41.62
2023-04-27T06:05:19.969Z,41.59
2023-04-27T06:06:19.946Z,41.66
2023-04-27T06:07:19.869Z,41.97
2023-04-27T06:08:20.790Z,42.13
2023-04-27T06:09:19.909Z,42.11
2023-04-27T06:10:19.925Z,42.55
2023-04-27T06:11:19.939Z,42.72
2023-04-27T06:12:19.954Z,42.76
2023-04-27T06:13:19.993Z,42.91
2023-04-27T06:14:20.123Z,42.78
2023-04-27T06:15:20.770Z,42.90
2023-04-27T06:16:20.120Z,43.07
2023-04-27T06:17:20.112Z,43.26
2023-04-27T06:18:20.105Z,43.35
2023-04-27T06:19:20.209Z,43.51
2023-04-27T06:20:20.310Z,43.52
2023-04-27T06:21:20.273Z,43.81
2023-04-27T06:22:20.308Z,43.89
2023-04-27T06:23:20.351Z,43.89
2023-04-27T06:24:20.655Z,43.91
2023-04-27T06:25:20.567Z,43.94
2023-04-27T06:26:20.585Z,44.13
2023-04-27T06:27:20.820Z,44.17
2023-04-27T06:28:20.671Z,44.22
2023-04-27T06:29:20.755Z,44.26
2023-04-27T06:30:20.882Z,44.58
2023-04-27T06:31:20.935Z,44.68
2023-04-27T06:32:20.897Z,44.78
2023-04-27T06:33:20.960Z,44.81
2023-04-27T06:34:21.000Z,44.91
2023-04-27T06:35:21.080Z,45.01
2023-04-27T06:36:21.134Z,45.12
2023-04-27T06:37:21.211Z,45.04
2023-04-27T06:38:21.273Z,44.94
2023-04-27T06:39:21.280Z,44.95
2023-04-27T06:40:21.356Z,44.79
2023-04-27T06:41:21.397Z,44.66
2023-04-27T06:42:21.443Z,44.52
2023-04-27T06:43:21.771Z,44.49
2023-04-27T06:44:21.550Z,44.47
2023-04-27T06:45:21.594Z,44.40
2023-04-27T06:46:21.704Z,44.38
2023-04-27T06:47:21.738Z,44.42
2023-04-27T06:48:21.860Z,44.41
2023-04-27T06:49:21.902Z,44.31
2023-04-27T06:50:21.958Z,44.25
2023-04-27T06:51:22.007Z,44.24
2023-04-27T06:52:22.105Z,44.24
2023-04-27T06:53:22.140Z,44.28
2023-04-27T06:54:22.201Z,44.22
2023-04-27T06:55:22.226Z,44.21
2023-04-27T06:56:22.302Z,44.17
2023-04-27T06:57:22.387Z,44.11
2023-04-27T06:58:22.404Z,44.08
2023-04-27T06:59:22.473Z,44.10
2023-04-27T07:00:22.516Z,44.06
2023-04-27T07:01:22.659Z,44.02
2023-04-27T07:02:24.925Z,43.97
2023-04-27T07:03:22.757Z,43.94
2023-04-27T07:04:22.906Z,43.79
2023-04-27T07:05:22.656Z,43.90
2023-04-27T07:06:22.612Z,43.75
2023-04-27T07:07:22.633Z,43.76
2023-04-27T07:08:22.614Z,43.70
2023-04-27T07:09:27.483Z,43.67
2023-04-27T07:10:23.609Z,43.66
2023-04-27T07:11:22.585Z,43.57
2023-04-27T07:12:22.583Z,43.58
2023-04-27T07:13:22.583Z,43.53
2023-04-27T07:14:22.552Z,43.49
2023-04-27T07:15:22.602Z,43.39
2023-04-27T07:16:22.578Z,43.38
2023-04-27T07:17:22.615Z,43.28
2023-04-27T07:18:22.789Z,43.27
2023-04-27T07:19:22.534Z,43.24
2023-04-27T07:20:22.539Z,43.21
2023-04-27T07:21:22.579Z,43.18
2023-04-27T07:22:22.540Z,43.17
2023-04-27T07:23:22.614Z,43.16
2023-04-27T07:24:22.585Z,43.11
2023-04-27T07:25:22.680Z,43.03
2023-04-27T07:26:22.754Z,43.01
2023-04-27T07:27:22.681Z,43.03
2023-04-27T07:28:22.713Z,42.94
2023-04-27T07:29:27.187Z,42.97
2023-04-27T07:30:22.737Z,42.92
2023-04-27T07:31:22.731Z,42.90
2023-04-27T07:32:22.862Z,42.93
2023-04-27T07:33:22.753Z,43.15
2023-04-27T07:34:22.730Z,43.77
2023-04-27T07:35:22.674Z,44.26
2023-04-27T07:36:22.693Z,44.89
2023-04-27T07:37:22.693Z,44.92
2023-04-27T07:38:22.787Z,44.98
2023-04-27T07:39:24.295Z,44.93
2023-04-27T07:40:22.644Z,44.37
2023-04-27T07:41:22.857Z,44.48
2023-04-27T07:42:22.743Z,44.01
2023-04-27T07:43:22.811Z,44.14
2023-04-27T07:44:22.918Z,44.37
2023-04-27T07:45:23.028Z,44.69
2023-04-27T07:46:23.899Z,44.85
2023-04-27T07:47:23.055Z,45.06
2023-04-27T07:48:23.355Z,45.08
2023-04-27T07:49:23.211Z,44.98
2023-04-27T07:50:23.263Z,44.97
2023-04-27T07:51:23.803Z,44.94
2023-04-27T07:52:23.362Z,44.84
2023-04-27T07:53:23.408Z,44.81
2023-04-27T07:54:23.482Z,44.89
2023-04-27T07:55:23.604Z,44.68
2023-04-27T07:56:23.760Z,44.70
2023-04-27T07:57:23.666Z,44.49
2023-04-27T07:58:23.792Z,44.57
2023-04-27T07:59:23.831Z,44.55
2023-04-27T08:00:23.978Z,44.55
2023-04-27T08:01:23.898Z,44.38
2023-04-27T08:02:24.107Z,44.45
2023-04-27T08:03:24.550Z,44.35
2023-04-27T08:04:24.319Z,44.12
2023-04-27T08:05:24.619Z,44.02
2023-04-27T08:06:24.853Z,44.05
2023-04-27T08:07:24.290Z,44.02
2023-04-27T08:08:24.353Z,43.96
2023-04-27T08:09:24.396Z,43.94
2023-04-27T08:10:24.478Z,43.94
2023-04-27T08:11:24.529Z,44.00
2023-04-27T08:12:24.528Z,43.94
2023-04-27T08:13:25.555Z,43.83
2023-04-27T08:14:24.643Z,43.85
2023-04-27T08:15:24.698Z,43.72
2023-04-27T08:16:24.948Z,43.62
2023-04-27T08:17:24.822Z,43.66
2023-04-27T08:18:24.865Z,43.66
2023-04-27T08:19:24.914Z,43.50
2023-04-27T08:20:24.977Z,43.48
2023-04-27T08:21:25.103Z,43.51
2023-04-27T08:22:25.080Z,43.52
2023-04-27T08:23:25.199Z,43.66
2023-04-27T08:24:25.162Z,43.78
2023-04-27T08:25:25.224Z,43.93
2023-04-27T08:26:26.409Z,44.08
2023-04-27T08:27:25.357Z,44.29
2023-04-27T08:28:25.396Z,44.34
2023-04-27T08:29:28.585Z,44.46
2023-04-27T08:30:25.484Z,44.63
2023-04-27T08:31:25.842Z,44.59
2023-04-27T08:32:25.429Z,44.38
2023-04-27T08:33:25.404Z,44.28
2023-04-27T08:34:25.406Z,44.25
2023-04-27T08:35:25.374Z,44.05
2023-04-27T08:36:25.368Z,43.81
2023-04-27T08:37:25.471Z,43.57
2023-04-27T08:38:25.734Z,43.50
2023-04-27T08:39:25.334Z,43.20
2023-04-27T08:40:25.345Z,42.99
2023-04-27T08:41:25.386Z,43.17
2023-04-27T08:42:25.402Z,42.14
2023-04-27T08:43:25.320Z,41.63
2023-04-27T08:44:25.310Z,42.25
2023-04-27T08:45:25.298Z,42.35
2023-04-27T08:46:25.364Z,42.38
2023-04-27T08:47:35.133Z,42.40
2023-04-27T08:48:26.335Z,42.43
2023-04-27T08:49:25.271Z,42.41
2023-04-27T08:50:25.307Z,42.44
2023-04-27T08:51:25.273Z,42.46
2023-04-27T08:52:25.254Z,42.45
2023-04-27T08:53:25.247Z,42.40
2023-04-27T08:54:25.235Z,42.42
2023-04-27T08:55:25.260Z,42.45
2023-04-27T08:56:25.307Z,42.41
2023-04-27T08:57:25.321Z,42.42
2023-04-27T08:58:25.342Z,42.40
2023-04-27T08:59:25.438Z,42.39
2023-04-27T09:00:25.472Z,42.42
2023-04-27T09:01:25.540Z,42.38
2023-04-27T09:02:25.732Z,42.33
2023-04-27T09:03:25.788Z,42.32
2023-04-27T09:04:25.778Z,42.35
2023-04-27T09:05:25.834Z,42.33
2023-04-27T09:06:25.876Z,42.35
2023-04-27T09:07:27.988Z,42.32
2023-04-27T09:08:25.835Z,42.29
2023-04-27T09:09:25.832Z,42.27
2023-04-27T09:10:25.853Z,42.24
2023-04-27T09:11:25.830Z,42.21
2023-04-27T09:12:25.799Z,42.22
2023-04-27T09:13:25.791Z,42.11
2023-04-27T09:14:25.796Z,42.06
2023-04-27T09:15:25.808Z,42.08
2023-04-27T09:16:25.828Z,42.03
2023-04-27T09:17:25.799Z,41.91
2023-04-27T09:18:25.782Z,41.91
2023-04-27T09:19:25.752Z,41.97
2023-04-27T09:20:25.735Z,41.93
2023-04-27T09:21:25.739Z,41.86
2023-04-27T09:22:25.714Z,41.87
2023-04-27T09:23:25.726Z,41.89
2023-04-27T09:24:25.714Z,41.91
2023-04-27T09:25:25.723Z,41.78
2023-04-27T09:26:25.731Z,42.07
2023-04-27T09:27:25.754Z,41.92
2023-04-27T09:28:25.679Z,41.73
2023-04-27T09:29:25.691Z,41.78
2023-04-27T09:30:25.656Z,41.32
2023-04-27T09:31:25.678Z,41.23
2023-04-27T09:32:25.691Z,41.17
2023-04-27T09:33:25.654Z,40.81
2023-04-27T09:34:25.660Z,40.79
2023-04-27T09:35:25.644Z,39.50
2023-04-27T09:36:25.633Z,39.65
2023-04-27T09:37:25.632Z,39.91
2023-04-27T09:38:26.305Z,39.66
2023-04-27T09:39:25.658Z,39.71
2023-04-27T09:40:25.603Z,40.10
2023-04-27T09:41:25.600Z,40.28
2023-04-27T09:42:25.596Z,40.34
2023-04-27T09:43:25.699Z,40.37
2023-04-27T09:44:25.684Z,40.35
2023-04-27T09:45:25.841Z,39.68
2023-04-27T09:46:25.593Z,39.37
2023-04-27T09:47:25.633Z,39.18
2023-04-27T09:48:25.794Z,39.01
2023-04-27T09:49:25.692Z,38.97
2023-04-27T09:50:25.723Z,39.11
2023-04-27T09:51:25.828Z,39.70
2023-04-27T09:52:26.033Z,39.57
2023-04-27T09:53:25.920Z,39.33
2023-04-27T09:54:26.069Z,39.31
2023-04-27T09:55:26.042Z,39.34
2023-04-27T09:56:26.088Z,39.28
2023-04-27T09:57:26.163Z,39.45
2023-04-27T09:58:26.204Z,39.03
2023-04-27T09:59:26.273Z,39.49
2023-04-27T10:00:26.328Z,39.55
2023-04-27T10:01:26.412Z,39.19
2023-04-27T10:02:26.504Z,39.34
2023-04-27T10:03:26.562Z,39.35
2023-04-27T10:04:26.672Z,39.41
2023-04-27T10:05:26.615Z,39.48
2023-04-27T10:06:26.642Z,39.13
2023-04-27T10:07:26.677Z,39.36
2023-04-27T10:08:26.733Z,39.33
2023-04-27T10:09:26.824Z,39.31
2023-04-27T10:10:26.825Z,39.33
2023-04-27T10:11:26.954Z,39.36
2023-04-27T10:12:26.962Z,39.39
2023-04-27T10:13:26.978Z,39.41
2023-04-27T10:14:27.050Z,39.42
2023-04-27T10:15:27.054Z,39.34
2023-04-27T10:16:27.168Z,38.99
2023-04-27T10:17:27.231Z,39.32
2023-04-27T10:18:27.317Z,39.41
2023-04-27T10:19:27.257Z,39.54
2023-04-27T10:20:27.261Z,39.60
2023-04-27T10:21:27.363Z,39.73
2023-04-27T10:22:27.337Z,39.80
2023-04-27T10:23:29.318Z,39.91
2023-04-27T10:24:27.427Z,40.10
2023-04-27T10:25:27.490Z,40.27
2023-04-27T10:26:27.533Z,39.81
2023-04-27T10:27:27.515Z,39.32
2023-04-27T10:28:27.552Z,39.49
2023-04-27T10:29:27.829Z,39.72
2023-04-27T10:30:28.336Z,39.33
2023-04-27T10:31:27.748Z,39.35
2023-04-27T10:32:27.847Z,39.23
2023-04-27T10:33:28.326Z,39.27
2023-04-27T10:34:28.602Z,39.08
2023-04-27T10:35:27.842Z,39.17
2023-04-27T10:36:27.930Z,39.25
2023-04-27T10:37:27.934Z,39.32
2023-04-27T10:38:27.947Z,39.26
2023-04-27T10:39:43.753Z,39.41
2023-04-27T10:40:29.011Z,39.52
2023-04-27T10:41:28.364Z,39.57
2023-04-27T10:42:28.016Z,39.59
2023-04-27T10:43:28.059Z,39.65
2023-04-27T10:44:27.967Z,39.69
2023-04-27T10:45:31.119Z,39.66
2023-04-27T10:46:28.062Z,39.72
2023-04-27T10:47:27.958Z,39.69
2023-04-27T10:48:27.939Z,39.71
2023-04-27T10:49:27.990Z,39.67
2023-04-27T10:50:27.929Z,39.74
2023-04-27T10:51:27.995Z,39.75
2023-04-27T10:52:27.961Z,39.74
2023-04-27T10:53:27.919Z,39.77
2023-04-27T10:54:27.883Z,39.80
2023-04-27T10:55:27.960Z,39.79
2023-04-27T10:56:27.938Z,39.75
2023-04-27T10:57:27.918Z,39.82
2023-04-27T10:58:37.777Z,39.78
2023-04-27T10:59:28.857Z,39.79
2023-04-27T11:00:27.861Z,39.85
2023-04-27T11:01:27.966Z,39.93
2023-04-27T11:02:27.958Z,40.00
2023-04-27T11:03:27.900Z,40.03
2023-04-27T11:04:27.834Z,40.05
2023-04-27T11:05:27.917Z,40.01
2023-04-27T11:06:27.898Z,39.91
2023-04-27T11:07:27.897Z,39.93
2023-04-27T11:08:27.821Z,40.02
2023-04-27T11:09:27.843Z,40.07
2023-04-27T11:10:27.788Z,40.10
2023-04-27T11:11:27.816Z,40.07
2023-04-27T11:12:27.770Z,40.17
2023-04-27T11:13:27.900Z,40.22
2023-04-27T11:14:27.796Z,40.12
2023-04-27T11:15:27.767Z,40.15
2023-04-27T11:16:28.059Z,40.23
2023-04-27T11:17:27.946Z,40.18
2023-04-27T11:18:27.978Z,40.14
2023-04-27T11:19:27.875Z,40.06
2023-04-27T11:20:27.910Z,40.05
2023-04-27T11:21:28.369Z,40.08
2023-04-27T11:22:28.055Z,40.14
2023-04-27T11:23:27.993Z,40.15
2023-04-27T11:24:28.387Z,40.12
2023-04-27T11:25:28.059Z,40.14
2023-04-27T11:26:28.376Z,40.20
2023-04-27T11:27:28.090Z,40.23
2023-04-27T11:28:28.159Z,40.26
2023-04-27T11:29:28.383Z,40.29
2023-04-27T11:30:28.203Z,40.31
2023-04-27T11:31:28.423Z,40.31
2023-04-27T11:32:28.290Z,40.25
2023-04-27T11:33:28.307Z,40.25
2023-04-27T11:34:28.322Z,40.29
2023-04-27T11:35:28.411Z,40.32
2023-04-27T11:36:28.406Z,40.37
2023-04-27T11:37:28.429Z,40.33
2023-04-27T11:38:28.483Z,40.38
2023-04-27T11:39:28.653Z,40.36
2023-04-27T11:40:28.593Z,40.37
2023-04-27T11:41:28.547Z,40.35
2023-04-27T11:42:28.754Z,40.38
2023-04-27T11:43:28.632Z,40.38
2023-04-27T11:44:28.663Z,40.34
2023-04-27T11:45:28.679Z,40.33
2023-04-27T11:46:28.727Z,40.34
2023-04-27T11:47:28.900Z,40.37
2023-04-27T11:48:28.808Z,40.38
2023-04-27T11:49:28.799Z,40.34
2023-04-27T11:50:28.871Z,40.30
2023-04-27T11:51:28.849Z,40.33
2023-04-27T11:52:28.918Z,40.36
2023-04-27T11:53:28.941Z,40.31
2023-04-27T11:54:28.999Z,40.36
2023-04-27T11:55:29.069Z,40.37
2023-04-27T11:56:29.048Z,40.28
2023-04-27T11:57:29.125Z,40.28
2023-04-27T11:58:29.129Z,40.24
2023-04-27T11:59:29.193Z,40.27
2023-04-27T12:00:29.175Z,40.29
2023-04-27T12:01:37.589Z,40.28
2023-04-27T12:02:30.355Z,40.23
2023-04-27T12:03:29.441Z,40.27
2023-04-27T12:04:29.502Z,40.26
2023-04-27T12:05:29.310Z,40.27
2023-04-27T12:06:33.274Z,40.25
2023-04-27T12:07:29.192Z,40.22
2023-04-27T12:08:29.178Z,40.33
2023-04-27T12:09:29.164Z,40.31
2023-04-27T12:10:29.171Z,40.30
2023-04-27T12:11:29.156Z,40.29
2023-04-27T12:12:29.157Z,40.23
2023-04-27T12:13:29.152Z,40.24
2023-04-27T12:14:29.328Z,40.23
2023-04-27T12:15:29.167Z,40.28
2023-04-27T12:16:29.185Z,40.23
2023-04-27T12:17:29.167Z,40.21
2023-04-27T12:18:29.095Z,40.28
2023-04-27T12:19:29.107Z,40.27
2023-04-27T12:20:29.132Z,40.27
2023-04-27T12:21:29.100Z,40.24
2023-04-27T12:22:29.109Z,40.28
2023-04-27T12:23:29.115Z,40.24
2023-04-27T12:24:29.234Z,40.28
2023-04-27T12:25:29.109Z,40.29
2023-04-27T12:26:29.117Z,40.27
2023-04-27T12:27:29.099Z,40.26
2023-04-27T12:28:29.155Z,40.16
2023-04-27T12:29:29.190Z,40.21
2023-04-27T12:30:29.194Z,40.18
2023-04-27T12:31:29.303Z,40.22
2023-04-27T12:32:29.344Z,40.16
2023-04-27T12:33:29.320Z,40.22
2023-04-27T12:34:29.359Z,40.18
2023-04-27T12:35:29.460Z,40.21
2023-04-27T12:36:29.421Z,40.31
2023-04-27T12:37:29.439Z,40.22
2023-04-27T12:38:29.661Z,40.27
2023-04-27T12:39:29.567Z,40.21
2023-04-27T12:40:29.605Z,40.28
2023-04-27T12:41:29.627Z,40.23
2023-04-27T12:42:29.724Z,40.19
2023-04-27T12:43:29.705Z,40.18
2023-04-27T12:44:29.776Z,40.30
2023-04-27T12:45:29.803Z,40.27
2023-04-27T12:46:29.921Z,40.24
2023-04-27T12:47:49.720Z,40.20
2023-04-27T12:48:30.894Z,40.22
2023-04-27T12:49:29.938Z,40.18
2023-04-27T12:50:29.890Z,40.23
2023-04-27T12:51:29.865Z,40.22
2023-04-27T12:52:29.835Z,40.20